createdAt,value
2023-01-31T00:00:23.556Z,-0.56
2023-01-31T00:02:53.795Z,-0.55
2023-01-31T00:05:22.665Z,-0.56
2023-01-31T00:07:51.394Z,-0.57
2023-01-31T00:10:20.257Z,-0.55
2023-01-31T00:12:48.797Z,-0.56
2023-01-31T00:15:18.837Z,-0.56
2023-01-31T00:17:47.500Z,-0.57
2023-01-31T00:20:18.859Z,-0.58
2023-01-31T00:22:47.759Z,-0.58
2023-01-31T00:25:16.417Z,-0.60
2023-01-31T00:27:45.035Z,-0.62
2023-01-31T00:30:14.362Z,-0.61
2023-01-31T00:32:42.948Z,-0.62
2023-01-31T00:35:11.660Z,-0.60
2023-01-31T00:37:42.117Z,-0.59
2023-01-31T00:40:12.407Z,-0.60
2023-01-31T00:42:41.292Z,-0.61
2023-01-31T00:45:12.871Z,-0.63
2023-01-31T00:47:42.133Z,-0.62
2023-01-31T00:50:15.488Z,-0.66
2023-01-31T00:52:45.506Z,-0.71
2023-01-31T00:55:14.146Z,-0.72
2023-01-31T00:57:42.790Z,-0.75
2023-01-31T01:00:13.146Z,-0.76
2023-01-31T01:02:41.970Z,-0.78
2023-01-31T01:05:10.933Z,-0.77
2023-01-31T01:07:39.515Z,-0.80
2023-01-31T01:10:10.937Z,-0.85
2023-01-31T01:12:39.577Z,-0.83
2023-01-31T01:15:09.028Z,-0.86
2023-01-31T01:17:37.642Z,-0.85
2023-01-31T01:20:07.234Z,-0.86
2023-01-31T01:22:36.855Z,-0.89
2023-01-31T01:25:06.297Z,-0.91
2023-01-31T01:27:36.677Z,-0.95
2023-01-31T01:30:06.667Z,-0.96
2023-01-31T01:32:36.429Z,-0.99
2023-01-31T01:35:05.357Z,-0.97
2023-01-31T01:37:34.785Z,-0.97
2023-01-31T01:40:03.679Z,-0.98
2023-01-31T01:42:37.164Z,-1.01
2023-01-31T01:45:16.075Z,-1.03
2023-01-31T01:47:50.588Z,-1.03
2023-01-31T01:50:24.002Z,-1.06
2023-01-31T01:52:56.193Z,-1.09
2023-01-31T01:55:30.578Z,-1.08
2023-01-31T01:58:03.900Z,-1.08
2023-01-31T02:00:34.359Z,-1.08
2023-01-31T02:03:05.003Z,-1.06
2023-01-31T02:05:36.639Z,-1.04
2023-01-31T02:08:06.087Z,-1.07
2023-01-31T02:10:39.544Z,-1.09
2023-01-31T02:13:10.741Z,-1.11
2023-01-31T02:15:39.473Z,-1.16
2023-01-31T02:18:10.165Z,-1.18
2023-01-31T02:21:09.653Z,-1.19
2023-01-31T02:24:08.363Z,-1.17
2023-01-31T02:27:04.934Z,-1.16
2023-01-31T02:29:53.011Z,-1.18
2023-01-31T02:32:48.213Z,-1.16
2023-01-31T02:35:26.842Z,-1.17
2023-01-31T02:38:05.030Z,-1.19
2023-01-31T02:40:42.319Z,-1.21
2023-01-31T02:43:14.775Z,-1.20
2023-01-31T02:45:52.750Z,-1.17
2023-01-31T02:48:34.779Z,-1.16
2023-01-31T02:51:09.681Z,-1.15
2023-01-31T02:53:45.742Z,-1.14
2023-01-31T02:56:20.181Z,-1.12
2023-01-31T02:58:56.229Z,-1.11
2023-01-31T03:01:29.310Z,-1.08
2023-01-31T03:04:03.760Z,-1.06
2023-01-31T03:07:00.399Z,-1.06
2023-01-31T03:09:39.024Z,-1.06
2023-01-31T03:12:24.432Z,-1.01
2023-01-31T03:15:02.982Z,-1.01
2023-01-31T03:17:43.456Z,-1.04
2023-01-31T03:20:19.502Z,-1.05
2023-01-31T03:22:52.609Z,-1.03
2023-01-31T03:25:26.829Z,-1.08
2023-01-31T03:28:01.972Z,-1.10
2023-01-31T03:30:39.074Z,-1.08
2023-01-31T03:33:13.881Z,-1.04
2023-01-31T03:35:51.819Z,-1.08
2023-01-31T03:38:26.168Z,-1.11
2023-01-31T03:40:59.645Z,-1.11
2023-01-31T03:43:34.838Z,-1.11
2023-01-31T03:46:10.136Z,-1.14
2023-01-31T03:48:43.996Z,-1.12
2023-01-31T03:51:20.416Z,-1.12
2023-01-31T03:53:53.445Z,-1.09
2023-01-31T03:56:28.030Z,-1.11
2023-01-31T03:59:00.879Z,-1.13
2023-01-31T04:01:37.033Z,-1.11
2023-01-31T04:04:13.558Z,-1.15
2023-01-31T04:06:44.585Z,-1.14
2023-01-31T04:09:14.092Z,-1.15
2023-01-31T04:11:45.163Z,-1.15
2023-01-31T04:14:13.766Z,-1.12
2023-01-31T04:16:42.747Z,-1.15
2023-01-31T04:19:16.815Z,-1.16
2023-01-31T04:21:47.365Z,-1.14
2023-01-31T04:24:16.286Z,-1.12
2023-01-31T04:26:45.215Z,-1.09
2023-01-31T04:29:14.664Z,-1.09
2023-01-31T04:31:43.640Z,-1.13
2023-01-31T04:34:12.793Z,-1.11
2023-01-31T04:36:41.623Z,-1.10
2023-01-31T04:39:13.945Z,-1.14
2023-01-31T04:41:45.684Z,-1.12
2023-01-31T04:44:14.520Z,-1.13
2023-01-31T04:46:43.342Z,-1.15
2023-01-31T04:49:12.341Z,-1.14
2023-01-31T04:51:41.219Z,-1.15
2023-01-31T04:54:10.761Z,-1.14
2023-01-31T04:56:41.244Z,-1.13
2023-01-31T04:59:11.239Z,-1.16
2023-01-31T05:01:42.343Z,-1.18
2023-01-31T05:04:11.307Z,-1.18
2023-01-31T05:06:40.229Z,-1.18
2023-01-31T05:09:09.203Z,-1.16
2023-01-31T05:11:39.268Z,-1.16
2023-01-31T05:14:09.670Z,-1.17
2023-01-31T05:16:38.453Z,-1.17
2023-01-31T05:19:07.264Z,-1.18
2023-01-31T05:21:55.196Z,-1.21
2023-01-31T05:24:24.325Z,-1.19
2023-01-31T05:26:56.838Z,-1.21
2023-01-31T05:29:30.064Z,-1.22
2023-01-31T05:32:00.842Z,-1.22
2023-01-31T05:34:33.047Z,-1.20
2023-01-31T05:37:02.760Z,-1.21
2023-01-31T05:39:34.089Z,-1.24
2023-01-31T05:42:03.344Z,-1.22
2023-01-31T05:44:33.552Z,-1.20
2023-01-31T05:47:02.548Z,-1.20
2023-01-31T05:49:33.836Z,-1.18
2023-01-31T05:52:04.028Z,-1.17
2023-01-31T05:54:32.779Z,-1.15
2023-01-31T05:57:01.508Z,-1.14
2023-01-31T05:59:32.336Z,-1.14
2023-01-31T06:02:03.061Z,-1.15
2023-01-31T06:04:32.141Z,-1.16
2023-01-31T06:07:02.149Z,-1.15
2023-01-31T06:09:31.414Z,-1.08
2023-01-31T06:12:01.736Z,-1.09
2023-01-31T06:14:30.890Z,-1.06
2023-01-31T06:17:00.482Z,-1.03
2023-01-31T06:19:30.787Z,-1.05
2023-01-31T06:22:02.547Z,-1.04
2023-01-31T06:24:31.796Z,-1.01
2023-01-31T06:27:00.570Z,-1.03
2023-01-31T06:29:29.234Z,-1.05
2023-01-31T06:31:58.025Z,-1.07
2023-01-31T06:34:26.833Z,-1.08
2023-01-31T06:36:57.183Z,-1.08
2023-01-31T06:39:28.291Z,-1.09
2023-01-31T06:41:57.758Z,-1.03
2023-01-31T06:44:27.521Z,-0.95
2023-01-31T06:46:56.279Z,-0.95
2023-01-31T06:49:24.968Z,-0.96
2023-01-31T06:51:54.351Z,-1.02
2023-01-31T06:54:24.727Z,-0.97
2023-01-31T06:56:53.859Z,-1.01
2023-01-31T06:59:22.611Z,-0.97
2023-01-31T07:01:51.471Z,-1.01
2023-01-31T07:04:20.289Z,-1.03
2023-01-31T07:06:49.067Z,-0.95
2023-01-31T07:09:18.086Z,-0.97
2023-01-31T07:11:48.551Z,-0.97
2023-01-31T07:14:18.708Z,-0.99
2023-01-31T07:16:47.427Z,-0.99
2023-01-31T07:19:16.154Z,-0.95
2023-01-31T07:21:45.561Z,-0.95
2023-01-31T07:24:14.588Z,-0.91
2023-01-31T07:26:43.605Z,-0.87
2023-01-31T07:29:14.109Z,-0.86
2023-01-31T07:31:43.048Z,-0.86
2023-01-31T07:34:12.275Z,-0.85
2023-01-31T07:36:41.331Z,-0.89
2023-01-31T07:39:12.893Z,-0.90
2023-01-31T07:41:44.131Z,-0.96
2023-01-31T07:44:14.609Z,-0.92
2023-01-31T07:46:45.586Z,-0.89
2023-01-31T07:49:14.758Z,-0.91
2023-01-31T07:51:43.414Z,-0.86
2023-01-31T07:54:13.195Z,-0.85
2023-01-31T07:56:41.968Z,-0.85
2023-01-31T07:59:10.639Z,-0.83
2023-01-31T08:01:57.953Z,-0.87
2023-01-31T08:04:26.664Z,-0.90
2023-01-31T08:06:57.224Z,-0.93
2023-01-31T08:09:26.421Z,-0.87
2023-01-31T08:11:55.072Z,-0.88
2023-01-31T08:14:25.796Z,-0.90
2023-01-31T08:16:56.865Z,-0.89
2023-01-31T08:19:26.967Z,-0.84
2023-01-31T08:21:55.547Z,-0.84
2023-01-31T08:24:24.246Z,-0.83
2023-01-31T08:26:53.072Z,-0.85
2023-01-31T08:29:22.306Z,-0.82
2023-01-31T08:31:52.207Z,-0.79
2023-01-31T08:34:23.704Z,-0.79
2023-01-31T08:36:52.686Z,-0.75
2023-01-31T08:39:21.466Z,-0.72
2023-01-31T08:41:50.167Z,-0.69
2023-01-31T08:44:19.038Z,-0.70
2023-01-31T08:46:47.860Z,-0.67
2023-01-31T08:49:16.683Z,-0.66
2023-01-31T08:51:46.997Z,-0.65
2023-01-31T08:54:18.325Z,-0.56
2023-01-31T08:56:50.990Z,-0.60
2023-01-31T08:59:19.823Z,-0.56
2023-01-31T09:01:48.508Z,-0.53
2023-01-31T09:04:17.280Z,-0.52
2023-01-31T09:06:47.768Z,-0.57
2023-01-31T09:09:16.484Z,-0.58
2023-01-31T09:11:47.506Z,-0.55
2023-01-31T09:14:16.267Z,-0.57
2023-01-31T09:16:47.021Z,-0.53
2023-01-31T09:19:16.205Z,-0.55
2023-01-31T09:21:44.852Z,-0.54
2023-01-31T09:24:15.144Z,-0.50
2023-01-31T09:26:43.967Z,-0.49
2023-01-31T09:29:12.655Z,-0.52
2023-01-31T09:31:41.305Z,-0.48
2023-01-31T09:34:10.121Z,-0.49
2023-01-31T09:36:38.625Z,-0.47
2023-01-31T09:39:07.387Z,-0.40
2023-01-31T09:41:43.349Z,-0.36
2023-01-31T09:44:17.546Z,-0.37
2023-01-31T09:46:51.731Z,-0.40
2023-01-31T09:49:24.366Z,-0.31
2023-01-31T09:52:00.101Z,-0.32
2023-01-31T09:54:36.990Z,-0.31
2023-01-31T09:57:19.702Z,-0.31
2023-01-31T09:59:58.490Z,-0.29
2023-01-31T10:02:56.011Z,-0.27
2023-01-31T10:05:32.004Z,-0.24
2023-01-31T10:08:11.040Z,-0.23
2023-01-31T10:10:44.776Z,-0.12
2023-01-31T10:13:22.739Z,-0.18
2023-01-31T10:15:55.784Z,-0.15
2023-01-31T10:18:32.806Z,-0.14
2023-01-31T10:21:06.018Z,-0.18
2023-01-31T10:23:40.680Z,-0.16
2023-01-31T10:26:17.885Z,-0.22
2023-01-31T10:28:55.105Z,-0.19
2023-01-31T10:31:32.127Z,-0.16
2023-01-31T10:34:06.265Z,-0.13
2023-01-31T10:36:39.631Z,-0.12
2023-01-31T10:39:16.848Z,-0.13
2023-01-31T10:42:01.944Z,-0.12
2023-01-31T10:44:43.768Z,-0.14
2023-01-31T10:47:17.132Z,-0.13
2023-01-31T10:49:48.696Z,-0.10
2023-01-31T10:52:31.761Z,-0.12
2023-01-31T10:55:13.935Z,-0.10
2023-01-31T10:57:43.527Z,-0.13
2023-01-31T11:00:22.334Z,-0.09
2023-01-31T11:02:51.470Z,-0.01
2023-01-31T11:05:22.937Z,-0.08
2023-01-31T11:07:51.897Z,-0.06
2023-01-31T11:10:26.684Z,0.01
2023-01-31T11:12:57.219Z,-0.02
2023-01-31T11:15:30.263Z,-0.09
2023-01-31T11:18:02.247Z,-0.07
2023-01-31T11:20:34.092Z,-0.13
2023-01-31T11:23:04.728Z,-0.11
2023-01-31T11:25:35.572Z,-0.10
2023-01-31T11:28:07.096Z,-0.20
2023-01-31T11:30:41.996Z,-0.28
2023-01-31T11:33:44.667Z,-0.29
2023-01-31T11:36:15.295Z,-0.30
2023-01-31T11:38:44.493Z,-0.25
2023-01-31T11:41:30.878Z,-0.16
2023-01-31T11:44:16.991Z,-0.17
2023-01-31T11:47:00.144Z,-0.13
2023-01-31T11:49:35.123Z,-0.11
2023-01-31T11:52:14.590Z,-0.03
2023-01-31T11:54:48.035Z,-0.04
2023-01-31T11:57:18.593Z,-0.01
2023-01-31T11:59:51.741Z,0.07
2023-01-31T12:02:34.600Z,0.08
2023-01-31T12:05:09.187Z,0.07
2023-01-31T12:07:45.033Z,0.06
2023-01-31T12:10:33.980Z,0.08
2023-01-31T12:13:17.903Z,0.05
2023-01-31T12:15:52.734Z,0.05
2023-01-31T12:18:38.941Z,0.08
2023-01-31T12:21:15.413Z,0.05
2023-01-31T12:23:56.997Z,0.08
2023-01-31T12:26:36.251Z,0.06
2023-01-31T12:29:25.866Z,-0.01
2023-01-31T12:32:18.827Z,0.04
2023-01-31T12:35:09.619Z,0.03
2023-01-31T12:37:47.708Z,0.07
2023-01-31T12:40:35.912Z,0.04
2023-01-31T12:43:06.728Z,0.05
2023-01-31T12:45:51.133Z,0.04
2023-01-31T12:49:00.173Z,-0.03
2023-01-31T12:51:42.436Z,-0.04
2023-01-31T12:54:36.294Z,0.03
2023-01-31T12:57:19.731Z,0.02
2023-01-31T12:59:56.430Z,-0.05
2023-01-31T13:02:48.087Z,-0.03
2023-01-31T13:05:28.569Z,-0.08
2023-01-31T13:08:05.086Z,-0.10
2023-01-31T13:10:39.334Z,-0.14
2023-01-31T13:13:16.244Z,-0.19
2023-01-31T13:15:52.135Z,-0.20
2023-01-31T13:18:22.007Z,-0.23
2023-01-31T13:20:56.930Z,-0.23
2023-01-31T13:23:32.190Z,-0.22
2023-01-31T13:26:09.177Z,-0.25
2023-01-31T13:28:43.838Z,-0.27
2023-01-31T13:31:19.116Z,-0.26
2023-01-31T13:33:52.992Z,-0.24
2023-01-31T13:36:27.556Z,-0.21
2023-01-31T13:38:59.550Z,-0.23
2023-01-31T13:41:31.796Z,-0.26
2023-01-31T13:44:02.510Z,-0.24
2023-01-31T13:46:36.473Z,-0.27
2023-01-31T13:49:09.286Z,-0.24
2023-01-31T13:51:42.997Z,-0.28
2023-01-31T13:54:20.981Z,-0.30
2023-01-31T13:56:53.967Z,-0.27
2023-01-31T13:59:25.493Z,-0.26
2023-01-31T14:01:56.343Z,-0.28
2023-01-31T14:04:40.455Z,-0.29
2023-01-31T14:07:20.575Z,-0.30
2023-01-31T14:10:32.824Z,-0.27
2023-01-31T14:13:41.050Z,-0.34
2023-01-31T14:16:43.570Z,-0.33
2023-01-31T14:19:58.226Z,-0.31
2023-01-31T14:22:27.937Z,-0.31
2023-01-31T14:25:00.352Z,-0.31
2023-01-31T14:27:34.786Z,-0.35
2023-01-31T14:30:12.624Z,-0.36
2023-01-31T14:32:44.946Z,-0.33
2023-01-31T14:35:37.231Z,-0.32
2023-01-31T14:38:16.867Z,-0.32
2023-01-31T14:40:57.892Z,-0.31
2023-01-31T14:43:52.053Z,-0.39
2023-01-31T14:46:44.833Z,-0.37
2023-01-31T14:49:38.477Z,-0.39
2023-01-31T14:52:42.713Z,-0.35
2023-01-31T14:55:50.251Z,-0.31
2023-01-31T14:58:23.878Z,-0.34
2023-01-31T15:00:58.649Z,-0.44
2023-01-31T15:03:29.916Z,-0.49
2023-01-31T15:06:10.273Z,-0.48
2023-01-31T15:08:45.981Z,-0.47
2023-01-31T15:11:43.418Z,-0.49
2023-01-31T15:14:35.322Z,-0.46
2023-01-31T15:17:27.303Z,-0.49
2023-01-31T15:20:14.704Z,-0.54
2023-01-31T15:22:46.015Z,-0.51
2023-01-31T15:25:23.443Z,-0.53
2023-01-31T15:27:52.974Z,-0.57
2023-01-31T15:30:22.927Z,-0.58
2023-01-31T15:32:59.818Z,-0.55
2023-01-31T15:35:31.835Z,-0.54
2023-01-31T15:38:06.527Z,-0.55
2023-01-31T15:40:35.262Z,-0.55
2023-01-31T15:43:17.987Z,-0.60
2023-01-31T15:45:48.000Z,-0.66
2023-01-31T15:48:19.604Z,-0.68
2023-01-31T15:50:53.158Z,-0.75
2023-01-31T15:53:26.007Z,-0.77
2023-01-31T15:55:58.358Z,-0.82
2023-01-31T15:58:29.350Z,-0.78
2023-01-31T16:01:00.638Z,-0.82
2023-01-31T16:03:34.175Z,-0.83
2023-01-31T16:06:04.240Z,-0.82
2023-01-31T16:08:35.742Z,-0.82
2023-01-31T16:11:07.005Z,-0.81
2023-01-31T16:13:38.961Z,-0.79
2023-01-31T16:16:10.756Z,-0.75
2023-01-31T16:18:45.638Z,-0.70
2023-01-31T16:21:17.636Z,-0.71
2023-01-31T16:23:46.413Z,-0.75
2023-01-31T16:26:21.962Z,-0.76
2023-01-31T16:28:54.457Z,-0.78
2023-01-31T16:31:25.396Z,-0.83
2023-01-31T16:33:57.642Z,-0.86
2023-01-31T16:36:29.063Z,-0.86
2023-01-31T16:39:01.015Z,-0.88
2023-01-31T16:41:48.052Z,-0.92
2023-01-31T16:44:20.256Z,-0.95
2023-01-31T16:46:50.703Z,-0.97
2023-01-31T16:49:24.047Z,-0.99
2023-01-31T16:51:55.966Z,-1.01
2023-01-31T16:54:26.313Z,-1.06
2023-01-31T16:57:10.272Z,-1.13
2023-01-31T16:59:53.077Z,-1.13
2023-01-31T17:02:26.519Z,-1.17
2023-01-31T17:04:59.106Z,-1.23
2023-01-31T17:07:31.493Z,-1.23
2023-01-31T17:10:02.239Z,-1.28
2023-01-31T17:12:33.062Z,-1.35
2023-01-31T17:15:03.886Z,-1.33
2023-01-31T17:17:37.592Z,-1.37
2023-01-31T17:20:08.930Z,-1.38
2023-01-31T17:22:37.613Z,-1.39
2023-01-31T17:25:15.575Z,-1.41
2023-01-31T17:27:44.186Z,-1.40
2023-01-31T17:30:14.412Z,-1.39
2023-01-31T17:32:44.637Z,-1.40
2023-01-31T17:35:19.901Z,-1.45
2023-01-31T17:37:48.826Z,-1.45
2023-01-31T17:40:18.221Z,-1.46
2023-01-31T17:42:46.892Z,-1.48
2023-01-31T17:45:17.639Z,-1.47
2023-01-31T17:47:48.900Z,-1.52
2023-01-31T17:50:20.949Z,-1.58
2023-01-31T17:52:50.159Z,-1.57
2023-01-31T17:55:20.379Z,-1.57
2023-01-31T17:57:49.294Z,-1.61
2023-01-31T18:00:20.017Z,-1.66
2023-01-31T18:02:48.819Z,-1.66
2023-01-31T18:05:30.264Z,-1.66
2023-01-31T18:08:06.832Z,-1.69
2023-01-31T18:10:35.418Z,-1.71
2023-01-31T18:13:04.658Z,-1.70
2023-01-31T18:15:34.038Z,-1.76
2023-01-31T18:18:02.636Z,-1.79
2023-01-31T18:20:32.689Z,-1.79
2023-01-31T18:23:01.240Z,-1.80
2023-01-31T18:25:31.031Z,-1.76
2023-01-31T18:27:59.708Z,-1.73
2023-01-31T18:30:28.409Z,-1.72
2023-01-31T18:32:56.996Z,-1.74
2023-01-31T18:35:25.747Z,-1.79
2023-01-31T18:37:55.826Z,-1.81
2023-01-31T18:40:24.819Z,-1.81
2023-01-31T18:42:53.408Z,-1.81
2023-01-31T18:45:22.219Z,-1.80
2023-01-31T18:47:51.988Z,-1.77
2023-01-31T18:50:20.678Z,-1.75
2023-01-31T18:52:49.317Z,-1.74
2023-01-31T18:55:19.923Z,-1.75
2023-01-31T18:57:48.727Z,-1.75
2023-01-31T19:00:18.145Z,-1.78
2023-01-31T19:02:50.761Z,-1.75
2023-01-31T19:05:21.103Z,-1.74
2023-01-31T19:07:50.012Z,-1.74
2023-01-31T19:10:20.430Z,-1.73
2023-01-31T19:12:49.573Z,-1.73
2023-01-31T19:15:18.409Z,-1.70
2023-01-31T19:17:47.085Z,-1.68
2023-01-31T19:21:03.371Z,-1.66
2023-01-31T19:23:34.408Z,-1.62
2023-01-31T19:26:28.774Z,-1.63
2023-01-31T19:28:59.112Z,-1.62
2023-01-31T19:31:42.365Z,-1.62
2023-01-31T19:34:11.582Z,-1.59
2023-01-31T19:36:44.896Z,-1.59
2023-01-31T19:39:13.686Z,-1.60
2023-01-31T19:41:43.763Z,-1.61
2023-01-31T19:50:40.858Z,-1.69
2023-01-31T19:53:09.660Z,-1.64
2023-01-31T19:55:38.337Z,-1.64
2023-01-31T19:58:08.978Z,-1.65
2023-01-31T20:00:37.670Z,-1.68
2023-01-31T20:03:06.576Z,-1.68
2023-01-31T20:05:35.316Z,-1.69
2023-01-31T20:08:03.981Z,-1.68
2023-01-31T20:10:32.717Z,-1.69
2023-01-31T20:13:02.844Z,-1.72
2023-01-31T20:15:33.340Z,-1.73
2023-01-31T20:18:02.178Z,-1.74
2023-01-31T20:20:30.718Z,-1.74
2023-01-31T20:22:59.401Z,-1.69
2023-01-31T20:25:28.214Z,-1.70
2023-01-31T20:27:56.883Z,-1.70
2023-01-31T20:30:25.562Z,-1.70
2023-01-31T20:32:55.604Z,-1.72
2023-01-31T20:35:25.259Z,-1.68
2023-01-31T20:37:53.851Z,-1.66
2023-01-31T20:40:23.024Z,-1.64
2023-01-31T20:42:52.365Z,-1.61
2023-01-31T20:45:21.245Z,-1.61
2023-01-31T20:47:49.765Z,-1.60
2023-01-31T20:50:20.566Z,-1.60
2023-01-31T20:52:51.481Z,-1.60
2023-01-31T20:55:20.041Z,-1.60
2023-01-31T20:57:50.502Z,-1.60
2023-01-31T21:00:21.057Z,-1.61
2023-01-31T21:02:50.755Z,-1.63
2023-01-31T21:05:22.139Z,-1.61
2023-01-31T21:07:50.861Z,-1.60
2023-01-31T21:10:20.336Z,-1.59
2023-01-31T21:12:49.290Z,-1.58
2023-01-31T21:15:18.139Z,-1.59
2023-01-31T21:17:49.361Z,-1.57
2023-01-31T21:20:18.202Z,-1.58
2023-01-31T21:22:48.244Z,-1.57
2023-01-31T21:25:19.111Z,-1.56
2023-01-31T21:27:51.589Z,-1.53
2023-01-31T21:30:20.762Z,-1.57
2023-01-31T21:32:49.411Z,-1.57
2023-01-31T21:35:18.141Z,-1.55
2023-01-31T21:37:49.541Z,-1.55
2023-01-31T21:40:19.666Z,-1.55
2023-01-31T21:42:50.981Z,-1.55
2023-01-31T21:45:40.155Z,-1.54
2023-01-31T21:48:27.840Z,-1.53
2023-01-31T21:50:56.990Z,-1.53
2023-01-31T21:53:29.150Z,-1.54
2023-01-31T21:56:02.603Z,-1.53
2023-01-31T21:58:31.867Z,-1.52
2023-01-31T22:01:05.291Z,-1.54
2023-01-31T22:03:34.265Z,-1.54
2023-01-31T22:06:03.882Z,-1.55
2023-01-31T22:08:34.485Z,-1.56
2023-01-31T22:11:03.843Z,-1.52
2023-01-31T22:13:33.617Z,-1.52
2023-01-31T22:16:03.218Z,-1.53
2023-01-31T22:18:33.035Z,-1.52
2023-01-31T22:21:03.447Z,-1.49
2023-01-31T22:23:36.045Z,-1.48
2023-01-31T22:26:06.532Z,-1.45
2023-01-31T22:28:36.225Z,-1.47
2023-01-31T22:31:08.351Z,-1.48
2023-01-31T22:33:38.447Z,-1.47
2023-01-31T22:36:09.048Z,-1.49
2023-01-31T22:38:39.762Z,-1.50
2023-01-31T22:41:10.708Z,-1.48
2023-01-31T22:43:40.705Z,-1.52
2023-01-31T22:46:12.388Z,-1.46
2023-01-31T22:48:41.390Z,-1.52
2023-01-31T22:51:13.276Z,-1.54
2023-01-31T22:53:43.964Z,-1.55
2023-01-31T22:56:17.821Z,-1.66
2023-01-31T22:58:47.104Z,-1.66
2023-01-31T23:01:18.045Z,-1.75
2023-01-31T23:03:47.307Z,-1.74
2023-01-31T23:06:17.129Z,-1.69
2023-01-31T23:08:47.299Z,-1.77
2023-01-31T23:11:17.442Z,-1.74
2023-01-31T23:13:46.833Z,-1.78
2023-01-31T23:16:18.477Z,-1.80
2023-01-31T23:18:47.419Z,-1.85
2023-01-31T23:21:17.817Z,-1.79
2023-01-31T23:23:47.894Z,-1.83
2023-01-31T23:26:16.432Z,-1.69
2023-01-31T23:28:45.066Z,-1.82
2023-01-31T23:31:13.681Z,-1.73
2023-01-31T23:33:42.297Z,-1.81
2023-01-31T23:36:11.354Z,-1.85
2023-01-31T23:38:39.935Z,-1.96
2023-01-31T23:41:09.932Z,-1.83
2023-01-31T23:43:38.453Z,-1.76
2023-01-31T23:46:07.404Z,-1.88
2023-01-31T23:48:39.678Z,-1.87
2023-01-31T23:51:08.284Z,-1.84
2023-01-31T23:53:36.732Z,-1.80
2023-01-31T23:56:05.665Z,-1.79
2023-01-31T23:58:36.172Z,-1.92
